Time;durP1;ratioP1;P1;durP2;ratioP2;P2;SDS_P1;SDS_P2;PMS_P1;PMS_P2;Temp;Humidity;BMP_temperature;BMP_pressure;BME280_temperature;BME280_humidity;BME280_pressure;Samples;Min_cycle;Max_cycle;Signal;HPM_P1;HPM_P2
2023/01/22 00:00:04;;;;;;;46.10;21.85;;;;;;;2.04;100.00;102813.53;5030931;28;20045;-76
2023/01/22 00:02:34;;;;;;;49.50;22.60;;;;;;;2.11;100.00;102800.34;5030091;28;20049;-77
2023/01/22 00:05:01;;;;;;;41.45;19.23;;;;;;;2.11;100.00;102800.34;5026229;28;20338;-78
2023/01/22 00:07:28;;;;;;;45.17;21.77;;;;;;;2.11;100.00;102787.53;5019078;28;20088;-75
2023/01/22 00:09:54;;;;;;;44.03;21.02;;;;;;;2.12;100.00;102786.41;5028879;28;20045;-76
2023/01/22 00:12:21;;;;;;;44.50;21.73;;;;;;;2.13;100.00;102779.03;5027969;28;20040;-77
2023/01/22 00:14:48;;;;;;;46.10;21.30;;;;;;;2.15;100.00;102774.06;5026119;28;20744;-77
2023/01/22 00:17:15;;;;;;;41.45;20.10;;;;;;;2.15;100.00;102774.06;5025781;28;20080;-77
2023/01/22 00:19:42;;;;;;;45.75;20.02;;;;;;;2.15;100.00;102766.72;5024675;28;20067;-78
2023/01/22 00:22:10;;;;;;;39.13;18.10;;;;;;;2.15;100.00;102769.44;5024966;28;20047;-77
2023/01/22 00:24:38;;;;;;;44.40;20.40;;;;;;;2.16;100.00;102760.13;5027813;28;20859;-77
2023/01/22 00:27:05;;;;;;;41.65;18.75;;;;;;;2.15;100.00;102760.41;5019659;28;20694;-77
2023/01/22 00:29:31;;;;;;;20.92;8.57;;;;;;;2.04;100.00;102743.38;5019472;28;20571;-77
2023/01/22 00:31:58;;;;;;;42.30;20.45;;;;;;;2.15;100.00;102763.97;5024656;28;20052;-77
2023/01/22 00:34:24;;;;;;;47.90;22.55;;;;;;;2.14;100.00;102759.63;5026580;28;20064;-77
2023/01/22 00:36:51;;;;;;;40.13;18.20;;;;;;;2.16;100.00;102759.34;5029779;28;20055;-77
2023/01/22 00:39:20;;;;;;;39.22;18.63;;;;;;;2.16;100.00;102756.59;5027490;28;20099;-76
2023/01/22 00:41:48;;;;;;;40.33;17.48;;;;;;;2.15;100.00;102744.03;5026382;28;20047;-77
2023/01/22 00:44:15;;;;;;;42.30;18.83;;;;;;;2.10;100.00;102735.91;5022268;28;20060;-77
2023/01/22 00:46:41;;;;;;;38.92;18.65;;;;;;;2.13;100.00;102735.34;5028551;28;20048;-77
2023/01/22 00:49:08;;;;;;;37.60;19.27;;;;;;;2.12;100.00;102734.50;5024375;28;20051;-78
2023/01/22 00:51:35;;;;;;;39.42;19.38;;;;;;;2.13;100.00;102738.06;5023849;28;20052;-77
2023/01/22 00:54:02;;;;;;;37.63;19.40;;;;;;;2.14;100.00;102736.97;5024222;28;20123;-75
2023/01/22 00:56:28;;;;;;;43.05;19.67;;;;;;;2.15;100.00;102731.19;5027640;28;20056;-76
2023/01/22 00:58:55;;;;;;;41.33;19.15;;;;;;;2.13;100.00;102729.88;5022960;28;20059;-77
2023/01/22 01:01:24;;;;;;;43.70;19.95;;;;;;;2.13;100.00;102727.94;5021112;28;20057;-76
2023/01/22 01:03:50;;;;;;;42.13;19.95;;;;;;;2.16;100.00;102723.84;5022089;28;20047;-76
2023/01/22 01:06:20;;;;;;;43.42;21.33;;;;;;;2.12;100.00;102728.22;5026860;28;20050;-78
2023/01/22 01:08:47;;;;;;;37.38;19.35;;;;;;;2.12;100.00;102717.31;5021632;28;20049;-75
2023/01/22 01:11:20;;;;;;;38.08;19.45;;;;;;;2.12;100.00;102709.13;5024629;28;20132;-76
2023/01/22 01:13:48;;;;;;;40.58;20.08;;;;;;;2.11;100.00;102708.31;5019244;28;20053;-76
2023/01/22 01:16:28;;;;;;;35.65;17.23;;;;;;;2.09;100.00;102710.53;5028562;28;20048;-76
2023/01/22 01:19:06;;;;;;;38.38;18.65;;;;;;;2.10;100.00;102722.25;5026015;28;20053;-74
2023/01/22 01:21:32;;;;;;;45.20;21.58;;;;;;;2.10;100.00;102720.31;5022653;28;20495;-78
2023/01/22 01:23:59;;;;;;;39.40;18.30;;;;;;;2.09;100.00;102723.34;5024791;28;20045;-77
2023/01/22 01:26:26;;;;;;;36.58;17.48;;;;;;;2.10;100.00;102720.31;5020182;28;20882;-75
2023/01/22 01:28:53;;;;;;;38.00;18.98;;;;;;;2.14;100.00;102728.75;5025953;28;20045;-78
2023/01/22 01:31:22;;;;;;;34.70;15.60;;;;;;;2.08;100.00;102727.19;5025504;28;20127;-77
2023/01/22 01:33:49;;;;;;;36.75;16.95;;;;;;;2.03;100.00;102724.53;5027711;28;20101;-78
2023/01/22 01:36:20;;;;;;;37.55;18.98;;;;;;;2.06;100.00;102732.94;5025066;28;20052;-77
2023/01/22 01:39:08;;;;;;;34.45;16.13;;;;;;;2.08;100.00;102730.75;5020326;28;20071;-76
2023/01/22 01:41:35;;;;;;;36.38;18.90;;;;;;;2.09;100.00;102731.53;5023506;28;20075;-76
2023/01/22 01:44:07;;;;;;;33.72;13.65;;;;;;;2.02;100.00;102703.78;5028556;28;20041;-76
2023/01/22 01:46:37;;;;;;;35.15;14.63;;;;;;;2.08;100.00;102719.81;5027506;28;20271;-75
2023/01/22 01:49:08;;;;;;;37.88;18.08;;;;;;;2.10;100.00;102720.31;5020049;28;20496;-76
2023/01/22 01:51:35;;;;;;;38.53;17.60;;;;;;;2.10;100.00;102711.34;5022215;28;20709;-77
2023/01/22 01:54:04;;;;;;;27.35;12.75;;;;;;;2.01;100.00;102702.97;5026672;28;20048;-77
2023/01/22 01:56:36;;;;;;;34.47;16.88;;;;;;;2.11;100.00;102713.78;5025354;28;20047;-77
2023/01/22 01:59:07;;;;;;;27.45;13.63;;;;;;;2.14;100.00;102712.38;5024495;28;20092;-77
2023/01/22 02:01:35;;;;;;;38.38;17.38;;;;;;;2.12;100.00;102706.38;5021987;28;20831;-77
2023/01/22 02:04:02;;;;;;;38.00;18.58;;;;;;;2.12;100.00;102715.41;5025324;28;20041;-77
2023/01/22 02:06:29;;;;;;;33.97;15.55;;;;;;;2.12;100.00;102715.41;5026582;28;20041;-77
2023/01/22 02:08:56;;;;;;;32.83;13.90;;;;;;;2.09;100.00;102712.44;5024212;28;20045;-77
2023/01/22 02:11:24;;;;;;;30.85;15.23;;;;;;;2.10;100.00;102709.41;5024306;28;20045;-77
2023/01/22 02:13:56;;;;;;;33.17;15.80;;;;;;;2.15;100.00;102708.53;5025609;28;20041;-76
2023/01/22 02:16:22;;;;;;;34.60;16.27;;;;;;;2.19;100.00;102718.59;5027100;28;20135;-78
2023/01/22 02:18:49;;;;;;;30.55;13.65;;;;;;;2.20;100.00;102713.94;5026938;28;20064;-76
2023/01/22 02:21:38;;;;;;;31.90;15.43;;;;;;;2.16;100.00;102715.66;5022451;28;20459;-77
2023/01/22 02:24:11;;;;;;;35.35;16.80;;;;;;;2.17;100.00;102712.59;5018221;28;20049;-77
2023/01/22 02:26:38;;;;;;;35.78;18.85;;;;;;;2.18;100.00;102707.94;5019608;28;20056;-78
2023/01/22 02:29:07;;;;;;;32.85;17.08;;;;;;;2.17;100.00;102715.31;5027116;28;20048;-78
2023/01/22 02:31:35;;;;;;;34.35;17.13;;;;;;;2.15;100.00;102709.34;5020136;28;20911;-77
2023/01/22 02:34:02;;;;;;;32.20;15.07;;;;;;;2.17;100.00;102711.78;5022110;28;20057;-77
2023/01/22 02:36:30;;;;;;;33.47;14.93;;;;;;;2.15;100.00;102700.34;5021831;28;20045;-77
2023/01/22 02:38:57;;;;;;;32.03;14.55;;;;;;;2.13;100.00;102703.34;5021664;28;20055;-77
2023/01/22 02:41:25;;;;;;;29.05;13.27;;;;;;;2.13;100.00;102697.09;5018590;28;20570;-76
2023/01/22 02:43:52;;;;;;;31.85;14.88;;;;;;;2.16;100.00;102704.72;5026800;28;20068;-75
2023/01/22 02:46:19;;;;;;;32.33;17.13;;;;;;;2.16;100.00;102707.44;5028517;28;20045;-75
2023/01/22 02:48:46;;;;;;;32.00;17.15;;;;;;;2.14;100.00;102709.66;5031789;28;20072;-78
2023/01/22 02:51:12;;;;;;;28.35;14.18;;;;;;;2.12;100.00;102712.66;5023126;28;20056;-79
2023/01/22 02:53:39;;;;;;;32.05;15.85;;;;;;;2.14;100.00;102706.91;5025207;28;20057;-77
2023/01/22 02:56:07;;;;;;;29.77;14.70;;;;;;;2.15;100.00;102711.25;5028294;28;20815;-75
2023/01/22 02:58:35;;;;;;;29.92;15.20;;;;;;;2.15;100.00;102705.81;5022103;28;20075;-77
2023/01/22 03:01:19;;;;;;;32.05;16.35;;;;;;;2.11;100.00;102697.41;5032898;28;20503;-77
2023/01/22 03:03:48;;;;;;;29.80;14.75;;;;;;;2.10;100.00;102703.16;5048115;28;20064;-76
2023/01/22 03:06:15;;;;;;;29.73;15.05;;;;;;;2.13;100.00;102702.56;5050849;28;20064;-77
2023/01/22 03:08:42;;;;;;;38.22;16.70;;;;;;;2.12;100.00;102700.91;5051301;28;20044;-76
2023/01/22 03:11:10;;;;;;;32.72;15.45;;;;;;;2.11;100.00;102696.56;5050888;28;20065;-75
2023/01/22 03:21:51;;;;;;;29.90;13.90;;;;;;;2.03;100.00;102686.31;5042167;28;20057;-77
2023/01/22 03:24:17;;;;;;;29.67;15.45;;;;;;;1.97;100.00;102682.00;5050398;28;20055;-75
2023/01/22 03:26:44;;;;;;;30.35;16.33;;;;;;;1.96;100.00;102677.66;5050388;28;20063;-75
2023/01/22 03:29:11;;;;;;;30.13;15.57;;;;;;;1.97;100.00;102682.00;5047355;28;20491;-77
2023/01/22 03:31:37;;;;;;;32.10;15.90;;;;;;;1.94;100.00;102686.16;5049582;28;20053;-77
2023/01/22 03:34:04;;;;;;;30.83;14.77;;;;;;;1.92;100.00;102669.22;5049552;28;20503;-75
2023/01/22 03:36:30;;;;;;;31.83;15.23;;;;;;;1.93;100.00;102681.78;5050252;28;20041;-76
2023/01/22 03:38:57;;;;;;;29.95;14.90;;;;;;;1.93;100.00;102680.97;5049089;28;20049;-76
2023/01/22 03:41:23;;;;;;;31.35;15.82;;;;;;;1.92;100.00;102680.16;5047243;28;20071;-74
2023/01/22 03:43:50;;;;;;;33.60;17.73;;;;;;;1.91;100.00;102694.09;5049082;28;20041;-73
2023/01/22 03:46:18;;;;;;;31.42;16.73;;;;;;;1.89;100.00;102688.91;5049660;28;20041;-76
2023/01/22 03:48:50;;;;;;;30.25;14.32;;;;;;;1.85;100.00;102685.16;5048116;28;20748;-73
2023/01/22 03:51:16;;;;;;;31.55;14.93;;;;;;;1.89;100.00;102690.88;5051872;28;20056;-73
2023/01/22 03:53:44;;;;;;;30.85;14.98;;;;;;;1.86;100.00;102694.16;5048148;28;20555;-76
2023/01/22 03:56:21;;;;;;;31.98;16.25;;;;;;;1.81;100.00;102683.28;5048007;28;20049;-76
2023/01/22 03:58:49;;;;;;;34.88;17.05;;;;;;;1.84;100.00;102688.19;5041722;28;20849;-74
2023/01/22 04:01:19;;;;;;;33.13;16.13;;;;;;;1.85;100.00;102689.78;5050895;28;20412;-75
2023/01/22 04:03:46;;;;;;;34.83;15.48;;;;;;;1.80;100.00;102687.13;5052494;28;20045;-75
2023/01/22 04:06:14;;;;;;;31.08;16.23;;;;;;;1.80;100.00;102692.59;5049586;28;20052;-74
2023/01/22 04:08:42;;;;;;;33.67;15.73;;;;;;;1.78;100.00;102681.97;5050571;28;20052;-75
2023/01/22 04:11:10;;;;;;;32.75;16.85;;;;;;;1.79;100.00;102686.31;5047419;28;20053;-74
2023/01/22 04:13:38;;;;;;;34.50;16.77;;;;;;;1.79;100.00;102683.59;5048500;28;20065;-76
2023/01/22 04:16:06;;;;;;;33.85;16.77;;;;;;;1.80;100.00;102689.88;5050000;28;20076;-76
2023/01/22 04:18:33;;;;;;;31.67;15.75;;;;;;;1.74;100.00;102683.66;5049562;28;20049;-76
2023/01/22 04:21:00;;;;;;;33.00;16.13;;;;;;;1.77;100.00;102683.09;5049704;28;20048;-76
2023/01/22 04:23:26;;;;;;;37.17;17.88;;;;;;;1.76;100.00;102678.69;5048551;28;20415;-73
2023/01/22 04:25:53;;;;;;;29.33;13.77;;;;;;;1.76;100.00;102677.91;5047206;28;20094;-75
2023/01/22 04:28:20;;;;;;;36.05;16.75;;;;;;;1.74;100.00;102682.84;5048961;28;20048;-74
2023/01/22 04:30:49;;;;;;;32.45;16.52;;;;;;;1.75;100.00;102685.28;5049044;28;20708;-76
2023/01/22 04:33:16;;;;;;;34.88;16.15;;;;;;;1.76;100.00;102692.34;5048662;28;20059;-75
2023/01/22 04:35:42;;;;;;;34.72;16.05;;;;;;;1.75;100.00;102695.38;5049413;28;20048;-73
2023/01/22 04:38:12;;;;;;;34.53;16.48;;;;;;;1.74;100.00;102693.75;5046861;28;20053;-74
2023/01/22 04:40:39;;;;;;;31.27;15.35;;;;;;;1.75;100.00;102695.38;5049471;28;20130;-74
2023/01/22 04:43:06;;;;;;;35.03;16.42;;;;;;;1.76;100.00;102694.28;5048160;28;20056;-74
2023/01/22 04:45:33;;;;;;;34.75;16.70;;;;;;;1.77;100.00;102695.91;5050110;28;20506;-73
2023/01/22 04:48:00;;;;;;;31.70;16.05;;;;;;;1.78;100.00;102692.06;5049132;28;20049;-74
2023/01/22 04:50:30;;;;;;;30.90;15.63;;;;;;;1.78;100.00;102692.88;5048577;28;20080;-76
2023/01/22 04:52:57;;;;;;;34.85;16.70;;;;;;;1.80;100.00;102703.50;5045726;28;20045;-75
2023/01/22 04:55:25;;;;;;;37.72;16.88;;;;;;;1.76;100.00;102697.03;5048487;28;20044;-74
2023/01/22 04:57:57;;;;;;;34.60;15.80;;;;;;;1.71;100.00;102683.41;5049152;28;20053;-74
2023/01/22 05:00:24;;;;;;;34.30;16.73;;;;;;;1.78;100.00;102694.78;5049726;28;20126;-75
2023/01/22 05:02:56;;;;;;;30.25;15.32;;;;;;;1.76;100.00;102697.03;5047456;28;20051;-76
2023/01/22 05:05:23;;;;;;;28.92;10.73;;;;;;;1.73;100.00;102686.69;5047699;28;20423;-76
2023/01/22 05:07:50;;;;;;;34.60;16.98;;;;;;;1.74;100.00;102691.84;5045937;28;20056;-74
2023/01/22 05:10:16;;;;;;;33.40;16.48;;;;;;;1.76;100.00;102686.91;5048340;28;20449;-75
2023/01/22 05:12:44;;;;;;;34.35;15.48;;;;;;;1.76;100.00;102691.56;5048146;28;20110;-76
2023/01/22 05:15:10;;;;;;;27.67;12.80;;;;;;;1.75;100.00;102695.38;5048155;28;20045;-76
2023/01/22 05:17:49;;;;;;;33.72;13.93;;;;;;;1.74;100.00;102685.56;5048671;28;20454;-75
2023/01/22 05:20:16;;;;;;;32.70;15.95;;;;;;;1.74;100.00;102691.84;5046322;28;20045;-74
2023/01/22 05:22:43;;;;;;;31.77;15.65;;;;;;;1.76;100.00;102691.56;5047447;28;20052;-74
2023/01/22 05:25:10;;;;;;;14.55;6.28;;;;;;;1.75;100.00;102690.75;5048429;28;20053;-75
2023/01/22 05:27:37;;;;;;;19.38;8.68;;;;;;;1.74;100.00;102682.84;5045530;28;20049;-74
2023/01/22 05:30:05;;;;;;;29.17;14.07;;;;;;;1.80;100.00;102687.97;5049670;28;20064;-74
2023/01/22 05:32:31;;;;;;;21.98;10.13;;;;;;;1.77;100.00;102680.34;5045181;28;20091;-74
2023/01/22 05:34:58;;;;;;;22.60;11.35;;;;;;;1.78;100.00;102681.97;5047322;28;20491;-75
2023/01/22 05:37:24;;;;;;;23.27;10.40;;;;;;;1.81;100.00;102688.75;5048181;28;20495;-75
2023/01/22 05:39:51;;;;;;;32.00;16.17;;;;;;;1.81;100.00;102683.28;5047301;28;20055;-76
2023/01/22 05:42:17;;;;;;;30.67;14.82;;;;;;;1.82;100.00;102685.75;5047474;28;20435;-76
2023/01/22 05:44:44;;;;;;;30.25;15.00;;;;;;;1.75;100.00;102685.28;5050765;28;20503;-72
2023/01/22 05:47:12;;;;;;;30.95;14.15;;;;;;;1.81;100.00;102696.94;5047030;28;20419;-73
2023/01/22 05:49:39;;;;;;;28.27;13.25;;;;;;;1.81;100.00;102699.69;5044535;28;20049;-73
2023/01/22 05:52:09;;;;;;;27.48;12.20;;;;;;;1.83;100.00;102698.28;5047504;28;20067;-75
2023/01/22 05:54:37;;;;;;;27.10;12.57;;;;;;;1.80;100.00;102698.88;5038813;28;20507;-75
2023/01/22 05:57:04;;;;;;;30.88;14.70;;;;;;;1.82;100.00;102695.88;5047869;28;20590;-76
2023/01/22 05:59:31;;;;;;;30.48;15.05;;;;;;;1.81;100.00;102695.03;5047757;28;20072;-76
2023/01/22 06:01:58;;;;;;;31.20;15.70;;;;;;;1.81;100.00;102695.03;5047257;28;20045;-75
2023/01/22 06:04:24;;;;;;;29.42;15.60;;;;;;;1.82;100.00;102695.88;5046265;28;20128;-76
2023/01/22 06:06:51;;;;;;;31.35;14.93;;;;;;;1.80;100.00;102692.59;5047400;28;20048;-75
2023/01/22 06:09:17;;;;;;;27.60;14.07;;;;;;;1.82;100.00;102690.41;5046773;28;20111;-75
2023/01/22 06:11:44;;;;;;;25.92;12.60;;;;;;;1.76;100.00;102684.16;5047684;28;20044;-76
2023/01/22 06:14:10;;;;;;;28.85;13.73;;;;;;;1.79;100.00;102685.53;5047620;28;20050;-76
2023/01/22 06:16:37;;;;;;;29.98;14.63;;;;;;;1.87;100.00;102693.88;5053396;28;20079;-75
2023/01/22 06:19:03;;;;;;;31.23;14.75;;;;;;;1.87;100.00;102682.13;5044297;28;20052;-76
2023/01/22 06:21:30;;;;;;;28.85;14.55;;;;;;;1.86;100.00;102696.91;5047074;28;20053;-77
2023/01/22 06:23:56;;;;;;;32.97;15.73;;;;;;;1.87;100.00;102699.34;5046937;28;20037;-74
2023/01/22 06:26:23;;;;;;;30.13;15.85;;;;;;;1.86;100.00;102694.16;5046914;28;20041;-74
2023/01/22 06:28:49;;;;;;;21.70;10.07;;;;;;;1.85;100.00;102685.16;5046967;28;20053;-74
2023/01/22 06:31:16;;;;;;;32.40;16.13;;;;;;;1.84;100.00;102694.47;5048128;28;20056;-76
2023/01/22 06:33:43;;;;;;;28.75;13.85;;;;;;;1.83;100.00;102703.72;5045394;28;20149;-76
2023/01/22 06:36:09;;;;;;;26.65;14.43;;;;;;;1.82;100.00;102699.38;5047389;28;20084;-76
2023/01/22 06:38:36;;;;;;;26.65;14.15;;;;;;;1.82;100.00;102702.13;5043998;28;20571;-75
2023/01/22 06:41:03;;;;;;;28.83;14.43;;;;;;;1.82;100.00;102701.31;5049499;28;20156;-75
2023/01/22 06:43:30;;;;;;;27.50;14.70;;;;;;;1.82;100.00;102704.06;5046402;28;20045;-74
2023/01/22 06:45:57;;;;;;;31.42;15.32;;;;;;;1.85;100.00;102706.16;5043644;28;20042;-75
2023/01/22 06:48:23;;;;;;;31.67;13.07;;;;;;;1.84;100.00;102716.31;5044140;28;20055;-75
2023/01/22 06:50:50;;;;;;;31.75;16.30;;;;;;;1.86;100.00;102713.28;5047413;28;20519;-74
2023/01/22 06:53:16;;;;;;;29.83;15.65;;;;;;;1.82;100.00;102704.06;5043628;28;20106;-75
2023/01/22 06:55:43;;;;;;;31.35;14.48;;;;;;;1.86;100.00;102714.06;5045404;28;20052;-75
2023/01/22 06:58:09;;;;;;;31.35;14.93;;;;;;;1.82;100.00;102709.50;5042288;28;20053;-74
2023/01/22 07:00:36;;;;;;;30.48;15.52;;;;;;;1.83;100.00;102711.13;5046068;28;20059;-75
2023/01/22 07:03:05;;;;;;;26.50;13.38;;;;;;;1.80;100.00;102708.97;5034360;28;20049;-74
2023/01/22 07:05:32;;;;;;;30.10;14.75;;;;;;;1.79;100.00;102713.59;5040750;28;20060;-74
2023/01/22 07:08:00;;;;;;;29.05;14.35;;;;;;;1.81;100.00;102713.31;5043244;28;20057;-74
2023/01/22 07:10:26;;;;;;;24.63;12.07;;;;;;;1.80;100.00;102722.63;5046953;28;20055;-74
2023/01/22 07:12:54;;;;;;;26.80;14.13;;;;;;;1.77;100.00;102721.28;5043519;28;20053;-75
2023/01/22 07:15:21;;;;;;;31.13;14.80;;;;;;;1.78;100.00;102719.34;5046232;28;20044;-76
2023/01/22 07:17:52;;;;;;;30.60;14.77;;;;;;;1.80;100.00;102719.91;5046132;28;20053;-80
2023/01/22 07:20:20;;;;;;;28.48;14.07;;;;;;;1.82;100.00;102726.69;5045901;28;20493;-76
2023/01/22 07:22:47;;;;;;;27.42;13.43;;;;;;;1.82;100.00;102728.63;5046008;28;20044;-75
2023/01/22 07:25:14;;;;;;;29.58;14.73;;;;;;;1.76;100.00;102730.56;5046295;28;20166;-76
2023/01/22 07:27:40;;;;;;;29.38;14.35;;;;;;;1.79;100.00;102737.38;5044962;28;20057;-75
2023/01/22 07:30:07;;;;;;;28.85;14.98;;;;;;;1.77;100.00;102736.84;5049813;28;20081;-76
2023/01/22 07:32:34;;;;;;;30.75;15.25;;;;;;;1.79;100.00;102740.13;5050183;28;20052;-75
2023/01/22 07:35:01;;;;;;;32.03;14.48;;;;;;;1.80;100.00;102736.28;5050198;28;20059;-76
2023/01/22 07:37:27;;;;;;;28.15;15.30;;;;;;;1.82;100.00;102748.53;5049635;28;20045;-74
2023/01/22 07:39:54;;;;;;;31.35;16.60;;;;;;;1.81;100.00;102743.34;5049200;28;20065;-77
2023/01/22 07:42:20;;;;;;;33.83;16.35;;;;;;;1.78;100.00;102738.47;5052456;28;20858;-76
2023/01/22 07:44:47;;;;;;;31.25;15.90;;;;;;;1.82;100.00;102753.19;5044756;28;20048;-77
2023/01/22 07:47:13;;;;;;;30.63;15.13;;;;;;;1.80;100.00;102753.47;5050091;28;20075;-76
2023/01/22 07:49:40;;;;;;;32.45;15.02;;;;;;;1.85;100.00;102758.03;5048062;28;20053;-77
2023/01/22 07:52:06;;;;;;;29.77;13.77;;;;;;;1.85;100.00;102771.69;5047081;28;20057;-76
2023/01/22 07:54:35;;;;;;;30.30;15.77;;;;;;;1.87;100.00;102770.31;5043193;28;20051;-75
2023/01/22 07:57:02;;;;;;;28.52;12.77;;;;;;;1.84;100.00;102764.63;5048086;28;20049;-74
2023/01/22 07:59:29;;;;;;;30.90;15.32;;;;;;;1.84;100.00;102761.88;5048935;28;20063;-75
2023/01/22 08:01:55;;;;;;;23.95;11.13;;;;;;;1.89;100.00;102764.56;5051036;28;20415;-77
2023/01/22 08:04:23;;;;;;;31.90;13.25;;;;;;;1.95;100.00;102766.13;5051764;28;20103;-78
2023/01/22 08:06:50;;;;;;;26.08;13.07;;;;;;;1.94;100.00;102772.69;5047293;28;20053;-77
2023/01/22 08:09:23;;;;;;;26.92;12.98;;;;;;;1.95;100.00;102774.31;5049431;28;20816;-76
2023/01/22 08:11:51;;;;;;;28.83;12.98;;;;;;;1.96;100.00;102773.22;5037242;28;20190;-77
2023/01/22 08:14:18;;;;;;;27.92;12.27;;;;;;;1.95;100.00;102771.56;5048306;28;20079;-78
2023/01/22 08:16:45;;;;;;;30.58;14.88;;;;;;;1.98;100.00;102766.38;5048116;28;20124;-74
2023/01/22 08:19:12;;;;;;;28.40;14.18;;;;;;;2.00;100.00;102766.88;5055636;28;20491;-74
2023/01/22 08:21:39;;;;;;;27.70;12.20;;;;;;;2.03;100.00;102773.69;5049683;28;20044;-75
2023/01/22 08:24:07;;;;;;;29.67;14.55;;;;;;;2.05;100.00;102768.72;5049456;28;20567;-77
2023/01/22 08:26:33;;;;;;;25.70;12.20;;;;;;;1.99;100.00;102775.38;5047084;28;20079;-77
2023/01/22 08:29:00;;;;;;;28.38;14.65;;;;;;;2.05;100.00;102776.94;5053677;28;20052;-75
2023/01/22 08:31:32;;;;;;;27.63;13.55;;;;;;;2.03;100.00;102765.50;5055396;28;20049;-76
2023/01/22 08:33:59;;;;;;;28.95;13.45;;;;;;;2.06;100.00;102770.38;5047570;28;20053;-75
2023/01/22 08:36:26;;;;;;;26.90;13.57;;;;;;;2.04;100.00;102767.13;5048958;28;20510;-78
2023/01/22 08:38:53;;;;;;;30.42;14.73;;;;;;;2.05;100.00;102775.03;5048048;28;20055;-76
2023/01/22 08:41:19;;;;;;;27.67;13.07;;;;;;;2.07;100.00;102780.19;5048280;28;20533;-75
2023/01/22 08:43:46;;;;;;;30.40;14.63;;;;;;;2.07;100.00;102780.19;5047233;28;20131;-78
2023/01/22 08:46:12;;;;;;;28.48;13.40;;;;;;;2.09;100.00;102772.50;5045927;28;20045;-76
2023/01/22 08:48:42;;;;;;;29.33;14.55;;;;;;;2.08;100.00;102770.88;5046402;28;20056;-78
2023/01/22 08:51:09;;;;;;;29.73;16.05;;;;;;;2.08;100.00;102771.72;5048129;28;20053;-75
2023/01/22 08:53:36;;;;;;;28.60;14.38;;;;;;;2.12;100.00;102775.47;5045627;28;20060;-76
2023/01/22 08:56:03;;;;;;;27.80;12.30;;;;;;;2.12;100.00;102778.22;5049371;28;20041;-76
2023/01/22 08:58:30;;;;;;;28.42;13.52;;;;;;;2.09;100.00;102769.78;5046301;28;20048;-76
2023/01/22 09:00:56;;;;;;;30.98;14.68;;;;;;;2.16;100.00;102771.06;5049849;28;20053;-77
2023/01/22 09:03:23;;;;;;;32.03;16.70;;;;;;;2.21;100.00;102786.56;5045368;28;20049;-75
2023/01/22 09:05:50;;;;;;;32.03;16.83;;;;;;;2.23;100.00;102784.38;5047992;28;20045;-76
2023/01/22 09:08:17;;;;;;;28.20;13.65;;;;;;;2.24;100.00;102775.06;5048781;28;20106;-77
2023/01/22 09:10:43;;;;;;;31.25;16.35;;;;;;;2.26;100.00;102773.66;5046046;28;20041;-78
2023/01/22 09:13:10;;;;;;;37.35;18.40;;;;;;;2.25;100.00;102777.50;5046833;28;20045;-78
2023/01/22 09:15:37;;;;;;;35.92;17.88;;;;;;;2.28;100.00;102776.94;5047965;28;20045;-76
2023/01/22 09:18:04;;;;;;;33.15;17.27;;;;;;;2.29;100.00;102780.47;5044798;28;20056;-75
2023/01/22 09:20:30;;;;;;;29.40;15.23;;;;;;;2.30;100.00;102780.16;5047210;28;20131;-78
2023/01/22 09:22:57;;;;;;;35.65;19.65;;;;;;;2.32;100.00;102782.63;5047461;28;20059;-78
2023/01/22 09:25:25;;;;;;;34.17;19.67;;;;;;;2.37;100.00;102772.44;5047717;28;20049;-77
2023/01/22 09:28:03;;;;;;;29.77;14.55;;;;;;;2.38;100.00;102784.19;5047551;28;20060;-77
2023/01/22 09:30:31;;;;;;;31.42;16.65;;;;;;;2.41;100.00;102780.88;5046310;28;20496;-76
2023/01/22 09:32:57;;;;;;;25.23;12.10;;;;;;;2.42;100.00;102786.03;5046903;28;20076;-75
2023/01/22 09:35:26;;;;;;;30.77;14.20;;;;;;;2.42;100.00;102788.78;5048102;28;20056;-76
2023/01/22 09:37:53;;;;;;;18.00;8.60;;;;;;;2.44;100.00;102802.16;5045369;28;20095;-76
2023/01/22 09:40:22;;;;;;;28.45;15.23;;;;;;;2.45;100.00;102798.28;5048041;28;20495;-75
2023/01/22 09:42:49;;;;;;;28.17;13.00;;;;;;;2.43;100.00;102784.13;5047211;28;20469;-75
2023/01/22 09:45:21;;;;;;;33.80;15.65;;;;;;;2.46;100.00;102789.81;5045887;28;20067;-77
2023/01/22 09:47:54;;;;;;;24.73;11.98;;;;;;;2.45;100.00;102790.09;5041226;28;20053;-76
2023/01/22 09:50:24;;;;;;;28.85;14.43;;;;;;;2.48;100.00;102794.97;5044077;28;20064;-75
2023/01/22 09:52:53;;;;;;;36.55;16.95;;;;;;;2.49;100.00;102804.78;5047021;28;20051;-76
2023/01/22 09:55:22;;;;;;;32.15;15.90;;;;;;;2.51;100.00;102797.13;5044323;28;20040;-76
2023/01/22 09:57:53;;;;;;;31.58;16.33;;;;;;;2.52;100.00;102794.09;5047679;28;20080;-76
2023/01/22 10:00:30;;;;;;;38.20;18.30;;;;;;;2.57;100.00;102791.28;5046193;28;20059;-74
2023/01/22 10:03:04;;;;;;;31.65;14.27;;;;;;;2.58;100.00;102795.66;5047605;28;20087;-77
2023/01/22 10:05:39;;;;;;;29.02;13.82;;;;;;;2.59;100.00;102801.94;5046768;28;20045;-74
2023/01/22 10:08:15;;;;;;;51.40;29.05;;;;;;;2.60;100.00;102789.91;5045660;28;20053;-74
2023/01/22 10:10:41;;;;;;;;;;;;;;;2.63;100.00;102792.84;5046350;28;20565;-74
2023/01/22 10:13:21;;;;;;;36.10;18.70;;;;;;;2.66;100.00;102784.06;5045838;28;20008;-76
2023/01/22 10:15:53;;;;;;;32.05;15.93;;;;;;;2.66;100.00;102785.97;5051233;28;20395;-75
2023/01/22 10:18:32;;;;;;;26.85;12.20;;;;;;;2.65;100.00;102782.47;5044740;28;20128;-76
2023/01/22 10:21:02;;;;;;;31.48;15.48;;;;;;;2.69;100.00;102786.22;5040286;28;20131;-75
2023/01/22 10:23:31;;;;;;;29.65;15.68;;;;;;;2.72;100.00;102776.59;5046052;28;20052;-75
2023/01/22 10:26:11;;;;;;;31.17;16.60;;;;;;;2.74;100.00;102779.88;5047772;28;20048;-75
2023/01/22 10:29:29;;;;;;;44.30;28.73;;;;;;;2.72;100.00;102782.06;5045368;28;20107;-75
2023/01/22 10:32:19;;;;;;;39.22;21.38;;;;;;;2.68;100.00;102783.78;5046478;28;20064;-75
2023/01/22 10:34:59;;;;;;;35.47;20.73;;;;;;;2.70;100.00;102773.34;5037879;28;20077;-75
2023/01/22 10:37:26;;;;;;;29.67;15.43;;;;;;;2.75;100.00;102778.75;5044404;28;20487;-75
2023/01/22 10:39:58;;;;;;;31.23;15.68;;;;;;;2.79;100.00;102771.59;5048800;28;20052;-75
2023/01/22 10:42:28;;;;;;;32.33;16.13;;;;;;;2.81;100.00;102771.28;5043617;28;20049;-75
2023/01/22 10:45:07;;;;;;;28.02;13.73;;;;;;;2.81;100.00;102768.56;5047125;28;20053;-75
2023/01/22 10:47:33;;;;;;;27.65;13.40;;;;;;;2.84;100.00;102768.78;5047488;28;20037;-76
2023/01/22 10:50:13;;;;;;;28.80;14.20;;;;;;;2.84;100.00;102771.53;5047303;28;20479;-76
2023/01/22 10:52:48;;;;;;;30.80;16.63;;;;;;;2.86;100.00;102765.75;5045104;28;20055;-76
2023/01/22 10:55:25;;;;;;;26.48;12.75;;;;;;;2.85;100.00;102773.16;5039111;28;20659;-77
2023/01/22 10:57:57;;;;;;;28.35;12.65;;;;;;;2.88;100.00;102779.94;5038944;28;20124;-75
2023/01/22 11:00:32;;;;;;;35.85;19.85;;;;;;;2.87;100.00;102767.38;5043988;28;20048;-76
2023/01/22 11:03:22;;;;;;;26.98;13.20;;;;;;;2.86;100.00;102766.56;5038357;28;20137;-74
2023/01/22 11:05:56;;;;;;;24.98;12.25;;;;;;;2.92;100.00;102764.56;5043283;28;20060;-75
2023/01/22 11:08:29;;;;;;;25.80;12.68;;;;;;;2.89;100.00;102763.22;5051410;28;20080;-75
2023/01/22 11:11:04;;;;;;;26.33;12.98;;;;;;;2.90;100.00;102762.13;5043794;28;20514;-74
2023/01/22 11:13:53;;;;;;;35.55;15.43;;;;;;;2.92;100.00;102759.09;5049130;28;20048;-76
2023/01/22 11:16:22;;;;;;;27.58;13.25;;;;;;;2.93;100.00;102753.31;5044675;28;20132;-75
2023/01/22 11:18:57;;;;;;;28.27;14.20;;;;;;;2.97;100.00;102764.50;5047294;28;20057;-76
2023/01/22 11:21:38;;;;;;;19.80;9.50;;;;;;;2.96;100.00;102766.41;5048263;28;20064;-77
2023/01/22 11:24:20;;;;;;;27.75;13.27;;;;;;;2.97;100.00;102757.09;5047869;28;20051;-77